Kalar Kahar Weather



Kalar Kahar's Current Weather

Temprature 17.3o overcast clouds

overcast clouds

Rain: 0 %

Min Temprature17.3o
Max Temprature17.3o
Humidity38
Wind Speed2.83 m/h
Sun Rise06:40:39
Sun Set18:03:51
Current Time: 27-Feb-2020 00:59:34
Lat/Lon: 32.78, 72.7




Kalar Kahar's Geo Location



Kalar Kahar's Weather Forecast

Time Overall Temp Min Temp Max Temp Humidity Wind Speed Rain
27-Feb-2020 (Thu)
02:00:00 overcast clouds 17.300 17.300 17.300 38 2.83 m/h 0 %
05:00:00 overcast clouds 16.200 16.200 16.200 42 1.64 m/h 0 %
08:00:00 overcast clouds 18.570 18.570 18.570 45 0.44 m/h 0 %
11:00:00 overcast clouds 23.470 23.470 23.470 29 1.29 m/h 0 %
14:00:00 clear sky 26.020 26.020 26.020 25 1.69 m/h 0 %
17:00:00 clear sky 25.390 25.390 25.390 29 3.02 m/h 0 %
20:00:00 clear sky 19.740 19.740 19.740 39 2.13 m/h 0 %
23:00:00 clear sky 18.120 18.120 18.120 46 2.34 m/h 0 %
28-Feb-2020 (Fri)
02:00:00 overcast clouds 16.780 16.780 16.780 50 2.31 m/h 0 %
05:00:00 overcast clouds 14.690 14.690 14.690 61 2.67 m/h 0 %
08:00:00 overcast clouds 15.430 15.430 15.430 63 2.59 m/h 0 %
11:00:00 overcast clouds 20.180 20.180 20.180 46 3.98 m/h 0 %
14:00:00 light rain 22.910 22.910 22.910 40 6.21 m/h 19 %
17:00:00 overcast clouds 21.890 21.890 21.890 44 4.69 m/h 0 %
20:00:00 broken clouds 17.090 17.090 17.090 61 3.75 m/h 0 %
23:00:00 light rain 15.970 15.970 15.970 71 2.31 m/h 169 %
29-Feb-2020 (Sat)
02:00:00 light rain 15.460 15.460 15.460 73 3.1 m/h 81 %
05:00:00 light rain 13.890 13.890 13.890 86 4.79 m/h 100 %
08:00:00 moderate rain 14.410 14.410 14.410 82 4.94 m/h 331 %
11:00:00 light rain 18.180 18.180 18.180 66 5.78 m/h 163 %
14:00:00 light rain 20.030 20.030 20.030 61 4.52 m/h 300 %
17:00:00 moderate rain 15.850 15.850 15.850 79 9.33 m/h 725 %
20:00:00 moderate rain 13.370 13.370 13.370 83 5.08 m/h 369 %
23:00:00 scattered clouds 12.770 12.770 12.770 83 2.7 m/h 0 %
01-Mar-2020 (Sun)
02:00:00 scattered clouds 12.560 12.560 12.560 82 0.92 m/h 0 %
05:00:00 broken clouds 13.220 13.220 13.220 77 1.04 m/h 0 %
08:00:00 overcast clouds 14.610 14.610 14.610 69 1.83 m/h 0 %
11:00:00 scattered clouds 19.980 19.980 19.980 51 3.04 m/h 0 %
14:00:00 clear sky 23.370 23.370 23.370 40 4.25 m/h 0 %
17:00:00 clear sky 22.640 22.640 22.640 42 3.9 m/h 0 %
20:00:00 clear sky 17.440 17.440 17.440 55 2.42 m/h 0 %
23:00:00 clear sky 14.860 14.860 14.860 65 0.24 m/h 0 %
02-Mar-2020 (Mon)
02:00:00 clear sky 13.930 13.930 13.930 64 1.07 m/h 0 %
05:00:00 scattered clouds 13.200 13.200 13.200 66 0.92 m/h 0 %
08:00:00 broken clouds 16.700 16.700 16.700 58 1.37 m/h 0 %
11:00:00 broken clouds 22.130 22.130 22.130 41 3.66 m/h 0 %
14:00:00 broken clouds 24.700 24.700 24.700 31 3.25 m/h 0 %
17:00:00 scattered clouds 24.080 24.080 24.080 31 2.05 m/h 0 %
20:00:00 clear sky 17.990 17.990 17.990 43 1.39 m/h 0 %
23:00:00 clear sky 16.200 16.200 16.200 48 0.82 m/h 0 %

Famous Cities (61)